Melbourne, FL

11:34 AM EDT on September 23, 2014 (GMT -0400)
Crystal Lakes West | Change Station
CLOSE
Current Station
Personal Weather Station
Location: West Melbourne, FL
Elevation: 28 ft
Nearby Weather Stations

Elev 28 ft 28.06 °N, 80.68 °W | Updated 2 seconds ago

Partly Cloudy
Partly Cloudy
84.4 °F
Feels Like 95 °F
N
8.3
Wind Variable Wind from South
Gusts 8.3 mph

Today
High -- | Low -- °F
--% Chance of Precip.
Yesterday
High -- | Low -- °F
Precip. -- in
7:11 AM 7:17 PM
Waning Crescent, 0% visible
Pressure 30.03 in
Visibility 10.0 miles
Clouds Few 2500 ft
Heat Index 95 °F
Dew Point 77 °F
Humidity 79%
Rainfall 0.00 in
Snow Depth Not available.
UV 7 out of 12
Pollen 2.50 out of 12
Air Quality Not available.
Flu Activity Not available.
METAR KMLB 231453Z 18005KT 10SM FEW025 28/24 A3003 RMK AO2 SLP168 T02780244 53006

More Conditions Fewer Conditions

Pressure 30.03 in
Visibility 10.0 miles
Clouds Few 2500 ft
Heat Index 95 °F
Dew Point 77 °F
Humidity 79%
Rainfall 0.00 in
Snow Depth Not available.
UV 7 out of 12
Pollen 2.50 out of 12
Air Quality Not available.
Flu Activity Not available.
METAR KMLB 231453Z 18005KT 10SM FEW025 28/24 A3003 RMK AO2 SLP168 T02780244 53006

More Conditions Fewer Conditions

Nowcast | as of 10:57 am EDT on September 23, 2014

Showers and storms will increase across the area this afternoon... becoming scattered to numerous. Best chance for convection through early afternoon will be from Lake County eastward and across the Treasure Coast and Okeechobee County. This activity will move north to northeast up to 10 to 15 mph with a few stronger storms possible. Main threats will be dangerous cloud to ground lightning...strong gusts to 40 mph...and locally heavy rainfall of 1 to 2 inches. Additional details...including graphics are available online at: http://www.Srh.NOAA.Gov/mlb/blog.Php

×

10-Day Weather Forecast

Almanac

Astronomy

Sep. 23, 2014 Rise Set
Actual Time 7:11 AM EDT 7:17 PM EDT
Civil Twilight 6:48 AM EDT 7:41 PM EDT
Nautical Twilight 6:20 AM EDT 8:08 PM EDT
Astronomical Twilight 5:53 AM EDT 8:36 PM EDT
Moon 6:35 AM EDT 6:57 PM EDT
Length of Visible Light 12h 53m
Length of Day
12h 06m
Tomorrow will be 1m 40s shorter.
Waning Crescent, 0% of the Moon is Illuminated
Today
Waning Crescent
Sep 24
New
Oct 1
First Quarter
Oct 8
Full
Oct 15
Last Quarter

Today's Extremes

State Highs State Lows

Community

WunderPhotos

Upload Photos

1,755,725 photos uploaded!

WunderBlogs® & News

Nearby

Snow Depth

Station Depth Elevation
No new snow has been reported.

Earthquake Activity

City Distance Mag. Time & Date
No recent earthquake activity has been reported nearby.
Minimum magnitude displayed is 2.5.

Coastal Water Temperatures

Place Temperature
Trident Pier, FL 82.9 °F
Fort Myers, FL 82.0 °F
Lake Worth, FL 84.0 °F

Nearby Weather Stations